Time;durP1;ratioP1;P1;durP2;ratioP2;P2;SDS_P1;SDS_P2;PMS_P1;PMS_P2;Temp;Humidity;BMP_temperature;BMP_pressure;BME280_temperature;BME280_humidity;BME280_pressure;Samples;Min_cycle;Max_cycle;Signal;HPM_P1;HPM_P2
2022/04/02 00:00:45;;;;;;;;;;;;;;;;;;5096118;28;19911;-64
2022/04/02 00:03:11;;;;;;;;;;;;;;;;;;5094523;28;20340;-64
2022/04/02 00:05:37;;;;;;;;;;;;;;;;;;5095491;28;19910;-64
2022/04/02 00:08:03;;;;;;;;;;;;;;;;;;5095795;28;19965;-63
2022/04/02 00:10:29;;;;;;;;;;;;;;;;;;5095366;28;19904;-63
2022/04/02 00:12:56;;;;;;;;;;;;;;;;;;5095819;28;19908;-62
2022/04/02 00:15:21;;;;;;;;;;;;;;;;;;5095662;28;19911;-63
2022/04/02 00:17:47;;;;;;;;;;;;;;;;;;5095230;28;19908;-63
2022/04/02 00:20:13;;;;;;;;;;;;;;;;;;5095554;28;19946;-63
2022/04/02 00:23:35;;;;;;;;;;;;;;;;;;5095557;28;20389;-63
2022/04/02 00:25:25;;;;;;;;;;;;;;;;;;5093982;28;19989;-63
2022/04/02 00:27:51;;;;;;;;;;;;;;;;;;5095442;28;19904;-63
2022/04/02 00:30:17;;;;;;;;;;;;;;;;;;5095356;28;20370;-62
2022/04/02 00:32:43;;;;;;;;;;;;;;;;;;5093655;28;19904;-62
2022/04/02 00:35:09;;;;;;;;;;;;;;;;;;5095355;28;19951;-62
2022/04/02 00:37:35;;;;;;;;;;;;;;;;;;5094032;28;19904;-63
2022/04/02 00:40:01;;;;;;;;;;;;;;;;;;5094891;28;20024;-63
2022/04/02 00:42:27;;;;;;;;;;;;;;;;;;5095279;28;20391;-62
2022/04/02 00:44:53;;;;;;;;;;;;;;;;;;5095207;28;20100;-62
2022/04/02 00:47:20;;;;;;;;;;;;;;;;;;5094706;28;20264;-63
2022/04/02 00:49:46;;;;;;;;;;;;;;;;;;5095017;28;19911;-62
2022/04/02 00:52:13;;;;;;;;;;;;;;;;;;5093757;28;19904;-62
2022/04/02 00:54:39;;;;;;;;;;;;;;;;;;5094680;28;20386;-62
2022/04/02 00:57:05;;;;;;;;;;;;;;;;;;5095169;28;19904;-63
2022/04/02 00:59:31;;;;;;;;;;;;;;;;;;5094804;28;20287;-62
2022/04/02 01:01:57;;;;;;;;;;;;;;;;;;5094139;28;19923;-63
2022/04/02 01:04:23;;;;;;;;;;;;;;;;;;5094841;28;19904;-63
2022/04/02 01:06:49;;;;;;;;;;;;;;;;;;5094470;28;19987;-63
2022/04/02 01:09:15;;;;;;;;;;;;;;;;;;5093392;28;19929;-63
2022/04/02 01:11:41;;;;;;;;;;;;;;;;;;5094941;28;19914;-62
2022/04/02 01:14:07;;;;;;;;;;;;;;;;;;5094655;28;19910;-63
2022/04/02 01:16:33;;;;;;;;;;;;;;;;;;5094574;28;19995;-63
2022/04/02 01:18:59;;;;;;;;;;;;;;;;;;5094528;28;19904;-62
2022/04/02 01:21:25;;;;;;;;;;;;;;;;;;5094118;28;19949;-63
2022/04/02 01:23:51;;;;;;;;;;;;;;;;;;5094814;28;19911;-63
2022/04/02 01:26:17;;;;;;;;;;;;;;;;;;5094374;28;19969;-63
2022/04/02 01:28:43;;;;;;;;;;;;;;;;;;5093978;28;20380;-63
2022/04/02 01:31:10;;;;;;;;;;;;;;;;;;5094299;28;19989;-63
2022/04/02 01:33:36;;;;;;;;;;;;;;;;;;5094299;28;20365;-63
2022/04/02 01:36:02;;;;;;;;;;;;;;;;;;5093702;28;19951;-63
2022/04/02 01:38:28;;;;;;;;;;;;;;;;;;5092853;28;19908;-63
2022/04/02 01:40:54;;;;;;;;;;;;;;;;;;5094164;28;19904;-63
2022/04/02 01:43:20;;;;;;;;;;;;;;;;;;5093701;28;19918;-63
2022/04/02 01:45:46;;;;;;;;;;;;;;;;;;5094156;28;20356;-63
2022/04/02 01:48:12;;;;;;;;;;;;;;;;;;5094074;28;19950;-63
2022/04/02 01:50:38;;;;;;;;;;;;;;;;;;5092383;28;20371;-64
2022/04/02 01:53:04;;;;;;;;;;;;;;;;;;5094091;28;19936;-63
2022/04/02 01:55:30;;;;;;;;;;;;;;;;;;5092717;28;20306;-63
2022/04/02 01:57:56;;;;;;;;;;;;;;;;;;5093624;28;19912;-63
2022/04/02 02:00:22;;;;;;;;;;;;;;;;;;5093958;28;19942;-63
2022/04/02 02:02:48;;;;;;;;;;;;;;;;;;5093667;28;20253;-63
2022/04/02 02:05:14;;;;;;;;;;;;;;;;;;5092221;28;19904;-63
2022/04/02 02:07:40;;;;;;;;;;;;;;;;;;5093905;28;19904;-63
2022/04/02 02:10:06;;;;;;;;;;;;;;;;;;5092178;28;20275;-63
2022/04/02 02:12:33;;;;;;;;;;;;;;;;;;5092510;28;19911;-63
2022/04/02 02:14:59;;;;;;;;;;;;;;;;;;5092535;28;20352;-63
2022/04/02 02:17:25;;;;;;;;;;;;;;;;;;5093812;28;19911;-63
2022/04/02 02:19:51;;;;;;;;;;;;;;;;;;5093759;28;19912;-63
2022/04/02 02:22:17;;;;;;;;;;;;;;;;;;5093678;28;20006;-63
2022/04/02 02:24:42;;;;;;;;;;;;;;;;;;5093292;28;20017;-63
2022/04/02 02:27:09;;;;;;;;;;;;;;;;;;5093702;28;19904;-63
2022/04/02 02:29:35;;;;;;;;;;;;;;;;;;5093698;28;20381;-63
2022/04/02 02:32:01;;;;;;;;;;;;;;;;;;5093308;28;20278;-63
2022/04/02 02:37:12;;;;;;;;;;;;;;;;;;5093660;28;19911;-63
2022/04/02 02:39:38;;;;;;;;;;;;;;;;;;5093335;28;19904;-63
2022/04/02 02:42:04;;;;;;;;;;;;;;;;;;5092192;28;19998;-63
2022/04/02 02:44:30;;;;;;;;;;;;;;;;;;5092347;28;19911;-64
2022/04/02 02:46:56;;;;;;;;;;;;;;;;;;5093222;28;19904;-64
2022/04/02 02:49:22;;;;;;;;;;;;;;;;;;5095705;28;20336;-63
2022/04/02 02:51:48;;;;;;;;;;;;;;;;;;5096206;28;19953;-66
2022/04/02 02:54:14;;;;;;;;;;;;;;;;;;5096929;28;19949;-63
2022/04/02 02:56:40;;;;;;;;;;;;;;;;;;5097769;28;20362;-63
2022/04/02 02:59:06;;;;;;;;;;;;;;;;;;5097238;28;19911;-63
2022/04/02 03:01:33;;;;;;;;;;;;;;;;;;5097235;28;19903;-63
2022/04/02 03:03:59;;;;;;;;;;;;;;;;;;5097154;28;19911;-63
2022/04/02 03:06:25;;;;;;;;;;;;;;;;;;5096659;28;20305;-64
2022/04/02 03:08:51;;;;;;;;;;;;;;;;;;5097261;28;19915;-63
2022/04/02 03:11:17;;;;;;;;;;;;;;;;;;5095683;28;19904;-63
2022/04/02 03:13:43;;;;;;;;;;;;;;;;;;5096534;28;19910;-64
2022/04/02 03:16:09;;;;;;;;;;;;;;;;;;5096994;28;20335;-64
2022/04/02 03:18:35;;;;;;;;;;;;;;;;;;5097102;28;19943;-63
2022/04/02 03:21:02;;;;;;;;;;;;;;;;;;5095134;28;19908;-64
2022/04/02 03:23:28;;;;;;;;;;;;;;;;;;5095421;28;19923;-64
2022/04/02 03:25:55;;;;;;;;;;;;;;;;;;5096727;28;19904;-63
2022/04/02 03:28:21;;;;;;;;;;;;;;;;;;5094982;28;19908;-63
2022/04/02 03:30:47;;;;;;;;;;;;;;;;;;5096724;28;19904;-63
2022/04/02 03:33:14;;;;;;;;;;;;;;;;;;5096943;28;19904;-63
2022/04/02 03:35:42;;;;;;;;;;;;;;;;;;5096149;28;19939;-63
2022/04/02 03:38:08;;;;;;;;;;;;;;;;;;5096473;28;20075;-63
2022/04/02 03:40:35;;;;;;;;;;;;;;;;;;5096357;28;20387;-63
2022/04/02 03:43:01;;;;;;;;;;;;;;;;;;5094559;28;19916;-63
2022/04/02 03:45:27;;;;;;;;;;;;;;;;;;5096614;28;20420;-63
2022/04/02 03:47:53;;;;;;;;;;;;;;;;;;5096259;28;19904;-63
2022/04/02 03:50:19;;;;;;;;;;;;;;;;;;5095827;28;19919;-63
2022/04/02 03:52:45;;;;;;;;;;;;;;;;;;5096176;28;19904;-63
2022/04/02 03:55:12;;;;;;;;;;;;;;;;;;5096123;28;20365;-63
2022/04/02 03:57:39;;;;;;;;;;;;;;;;;;5095690;28;19904;-63
2022/04/02 04:00:06;;;;;;;;;;;;;;;;;;5094620;28;19904;-63
2022/04/02 04:02:34;;;;;;;;;;;;;;;;;;5095522;28;19915;-63
2022/04/02 04:05:00;;;;;;;;;;;;;;;;;;5094718;28;19908;-63
2022/04/02 04:07:26;;;;;;;;;;;;;;;;;;5095930;28;20347;-62
2022/04/02 04:09:52;;;;;;;;;;;;;;;;;;5095446;28;20386;-65
2022/04/02 04:12:19;;;;;;;;;;;;;;;;;;5095795;28;20256;-63
2022/04/02 04:14:45;;;;;;;;;;;;;;;;;;5095760;28;19904;-62
2022/04/02 04:17:11;;;;;;;;;;;;;;;;;;5095553;28;19914;-62
2022/04/02 04:19:37;;;;;;;;;;;;;;;;;;5095642;28;20282;-64
2022/04/02 04:22:04;;;;;;;;;;;;;;;;;;5095721;28;19908;-64
2022/04/02 04:24:30;;;;;;;;;;;;;;;;;;5095169;28;19995;-63
2022/04/02 04:26:56;;;;;;;;;;;;;;;;;;5094229;28;20330;-63
2022/04/02 04:29:22;;;;;;;;;;;;;;;;;;5096070;28;19940;-63
2022/04/02 04:31:48;;;;;;;;;;;;;;;;;;5093761;28;19973;-63
2022/04/02 04:34:15;;;;;;;;;;;;;;;;;;5094052;28;19911;-62
2022/04/02 04:36:41;;;;;;;;;;;;;;;;;;5095347;28;20274;-62
2022/04/02 04:39:07;;;;;;;;;;;;;;;;;;5094919;28;19904;-62
2022/04/02 04:41:33;;;;;;;;;;;;;;;;;;5095143;28;19904;-62
2022/04/02 04:43:59;;;;;;;;;;;;;;;;;;5095172;28;20398;-62
2022/04/02 04:46:25;;;;;;;;;;;;;;;;;;5094844;28;19904;-62
2022/04/02 04:48:51;;;;;;;;;;;;;;;;;;5093765;28;19908;-63
2022/04/02 04:51:18;;;;;;;;;;;;;;;;;;5095029;28;20240;-62
2022/04/02 04:53:44;;;;;;;;;;;;;;;;;;5093370;28;19904;-62
2022/04/02 04:56:10;;;;;;;;;;;;;;;;;;5095004;28;19911;-62
2022/04/02 04:58:36;;;;;;;;;;;;;;;;;;5093642;28;19904;-62
2022/04/02 05:01:02;;;;;;;;;;;;;;;;;;5093119;28;19904;-62
2022/04/02 05:03:29;;;;;;;;;;;;;;;;;;5094594;28;20011;-62
2022/04/02 05:05:56;;;;;;;;;;;;;;;;;;5094370;28;19957;-65
2022/04/02 05:08:23;;;;;;;;;;;;;;;;;;5094757;28;19908;-62
2022/04/02 05:10:49;;;;;;;;;;;;;;;;;;5094435;28;19999;-62
2022/04/02 05:13:15;;;;;;;;;;;;;;;;;;5093941;28;20331;-62
2022/04/02 05:15:41;;;;;;;;;;;;;;;;;;5093323;28;19944;-62
2022/04/02 05:18:07;;;;;;;;;;;;;;;;;;5094559;28;19904;-62
2022/04/02 05:20:34;;;;;;;;;;;;;;;;;;5094535;28;20431;-62
2022/04/02 05:23:00;;;;;;;;;;;;;;;;;;5094394;28;20329;-63
2022/04/02 05:25:26;;;;;;;;;;;;;;;;;;5094397;28;19904;-63
2022/04/02 05:27:54;;;;;;;;;;;;;;;;;;5093997;28;20002;-63
2022/04/02 05:30:20;;;;;;;;;;;;;;;;;;5094338;28;20016;-63
2022/04/02 05:32:46;;;;;;;;;;;;;;;;;;5094375;28;20385;-63
2022/04/02 05:35:12;;;;;;;;;;;;;;;;;;5093882;28;19913;-64
2022/04/02 05:37:38;;;;;;;;;;;;;;;;;;5094218;28;20338;-63
2022/04/02 05:40:06;;;;;;;;;;;;;;;;;;5094340;28;19911;-63
2022/04/02 05:42:32;;;;;;;;;;;;;;;;;;5092382;28;20382;-63
2022/04/02 05:44:58;;;;;;;;;;;;;;;;;;5092846;28;20257;-63
2022/04/02 05:47:24;;;;;;;;;;;;;;;;;;5094118;28;19950;-63
2022/04/02 05:49:52;;;;;;;;;;;;;;;;;;5093656;28;19942;-63
2022/04/02 05:52:18;;;;;;;414.77;228.85;;;;;;;;;;5092955;28;20396;-64
2022/04/02 05:54:44;;;;;;;;;;;;;;;;;;5093938;28;20024;-63
2022/04/02 05:57:10;;;;;;;;;;;;;;;;;;5093600;28;20391;-64
2022/04/02 05:59:36;;;;;;;;;;;;;;;;;;5092654;28;19911;-64
2022/04/02 06:02:02;;;;;;;;;;;;;;;;;;5093320;28;20501;-63
2022/04/02 06:04:28;;;;;;;;;;;;;;;;;;5093925;28;19904;-64
2022/04/02 06:06:54;;;;;;;;;;;;;;;;;;5093928;28;19949;-64
2022/04/02 06:09:20;;;;;;;;;;;;;;;;;;5093692;28;20339;-64
2022/04/02 06:11:46;;;;;;;;;;;;;;;;;;5093875;28;19904;-64
2022/04/02 06:14:13;;;;;;;;;;;;;;;;;;5093873;28;19991;-64
2022/04/02 06:16:39;;;;;;;;;;;;;;;;;;5093403;28;19951;-64
2022/04/02 06:19:05;;;;;;;;;;;;;;;;;;5093849;28;20424;-64
2022/04/02 06:21:31;;;;;;;;;;;;;;;;;;5092584;28;19908;-64
2022/04/02 06:23:57;;;;;;;;;;;;;;;;;;5094786;28;19904;-64
2022/04/02 06:26:23;;;;;;;;;;;;;;;;;;5096577;28;19911;-64
2022/04/02 06:30:54;;;;;;;564.05;263.55;;;;;;;;;;5110129;27;20350;-64
2022/04/02 06:33:37;;;;;;;;;;;;;;;;;;5112269;27;20967;-64
2022/04/02 06:36:03;;;;;;;545.72;254.95;;;;;;;;;;5110651;28;20393;-64
2022/04/02 06:40:14;;;;;;;557.33;240.98;;;;;;;;;;5111708;27;20485;-63
2022/04/02 06:45:05;;;;;;;539.97;248.38;;;;;;;;;;5111247;27;20828;-65
2022/04/02 06:49:36;;;;;;;491.52;234.20;;;;;;;;;;5111708;27;20392;-63
2022/04/02 06:52:03;;;;;;;;;;;;;;;;;;5111373;28;20034;-63
2022/04/02 06:54:29;;;;;;;602.08;258.88;;;;;;;;;;5110372;28;20414;-63
2022/04/02 06:56:55;;;;;;;;;;;;;;;;;;5111586;28;20388;-63
2022/04/02 06:59:22;;;;;;;526.25;253.60;;;;;;;;;;5110328;28;20403;-63
2022/04/02 07:01:48;;;;;;;;;;;;;;;;;;5111473;28;20032;-63
2022/04/02 07:04:14;;;;;;;;;;;;;;;;;;5111465;28;19956;-63
2022/04/02 07:06:44;;;;;;;;;;;;;;;;;;5109613;28;19904;-62
2022/04/02 07:11:07;;;;;;;;;;;;;;;;;;5111711;27;20462;-63
2022/04/02 07:13:34;;;;;;;316.52;191.57;;;;;;;;;;5110009;28;20389;-63
2022/04/02 07:17:00;;;;;;;531.30;235.75;;;;;;;;;;5111097;27;20400;-65
2022/04/02 07:19:26;;;;;;;473.58;229.75;;;;;;;;;;5109455;28;20024;-64
2022/04/02 07:24:32;;;;;;;500.05;234.98;;;;;;;;;;5101938;27;20477;-64
2022/04/02 07:28:05;;;;;;;;;;;;;;;;;;5057979;28;20478;-63
2022/04/02 07:30:35;;;;;;;531.17;245.03;;;;;;;;;;5030007;28;20426;-63
2022/04/02 07:33:05;;;;;;;;;;;;;;;;;;5031091;28;20032;-63
2022/04/02 07:35:32;;;;;;;;;;;;;;;;;;5042353;28;19909;-64
2022/04/02 07:37:58;;;;;;;;;;;;;;;;;;5031361;28;20380;-63
2022/04/02 07:40:24;;;;;;;;;;;;;;;;;;5027048;28;19905;-64
2022/04/02 07:42:52;;;;;;;167.43;145.98;;;;;;;;;;5044987;28;20411;-63
2022/04/02 07:45:41;;;;;;;268.00;174.20;;;;;;;;;;5024021;27;2728410;-63
2022/04/02 07:50:35;;;;;;;;;;;;;;;;;;5088987;27;20118;-63
2022/04/02 07:53:06;;;;;;;655.65;261.45;;;;;;;;;;5080756;28;20417;-63
2022/04/02 07:56:14;;;;;;;542.50;297.73;;;;;;;;;;5102152;27;20402;-63
2022/04/02 07:58:40;;;;;;;;;;;;;;;;;;5087026;28;20039;-64
2022/04/02 08:03:43;;;;;;;542.00;310.23;;;;;;;;;;5126855;27;20379;-64
2022/04/02 08:06:10;;;;;;;;;;;;;;;;;;5109011;28;20016;-64
2022/04/02 08:08:39;;;;;;;;;;;;;;;;;;5089749;28;19998;-65
2022/04/02 08:11:06;;;;;;;;;;;;;;;;;;5090231;28;19916;-63
2022/04/02 08:13:34;;;;;;;;;;;;;;;;;;5089796;28;20204;-63
2022/04/02 08:18:27;;;;;;;482.30;299.13;;;;;;;;;;5087816;27;20492;-66
2022/04/02 08:21:48;;;;;;;496.88;316.23;;;;;;;;;;5107892;27;20325;-63
2022/04/02 08:25:58;;;;;;;535.67;361.73;;;;;;;;;;5068098;28;20416;-63
2022/04/02 08:28:31;;;;;;;542.47;326.15;;;;;;;;;;5067941;28;20388;-64
2022/04/02 08:31:04;;;;;;;561.85;344.48;;;;;;;;;;5066704;28;20082;-63
2022/04/02 08:34:20;;;;;;;497.50;320.90;;;;;;;;;;5109139;27;20446;-63
2022/04/02 08:36:55;;;;;;;592.05;322.48;;;;;;;;;;5069663;28;20043;-64
2022/04/02 08:39:21;;;;;;;597.08;343.27;;;;;;;;;;5108951;28;20027;-63
2022/04/02 08:41:53;;;;;;;517.42;311.60;;;;;;;;;;5095406;28;20052;-63
2022/04/02 08:46:44;;;;;;;590.05;348.40;;;;;;;;;;5107187;27;20668;-63
2022/04/02 08:49:26;;;;;;;414.10;255.52;;;;;;;;;;5088582;28;20056;-63
2022/04/02 08:52:09;;;;;;;563.05;309.65;;;;;;;;;;5109167;27;20382;-64
2022/04/02 08:57:32;;;;;;;569.95;276.35;;;;;;;;;;5108757;27;20400;-64
2022/04/02 09:00:08;;;;;;;567.55;360.00;;;;;;;;;;5108827;28;20390;-65
2022/04/02 09:03:10;;;;;;;551.70;278.30;;;;;;;;;;5111209;28;20048;-64
2022/04/02 09:05:56;;;;;;;616.07;315.87;;;;;;;;;;5086887;28;20450;-64
2022/04/02 09:08:22;;;;;;;;;;;;;;;;;;5097919;28;20535;-64
2022/04/02 09:10:57;;;;;;;447.25;287.35;;;;;;;;;;5110684;28;20427;-64
2022/04/02 09:13:38;;;;;;;207.70;184.80;;;;;;;;;;5109556;28;20024;-64
2022/04/02 09:16:07;;;;;;;;;;;;;;;;;;5111713;28;20046;-64
2022/04/02 09:18:36;;;;;;;455.73;287.38;;;;;;;;;;5108884;28;20476;-64
2022/04/02 09:21:22;;;;;;;488.95;291.92;;;;;;;;;;5108513;28;20422;-64
2022/04/02 09:23:49;;;;;;;509.02;293.33;;;;;;;;;;5098434;28;20410;-64
2022/04/02 09:26:15;;;;;;;;;;;;;;;;;;5109541;28;20742;-64
2022/04/02 09:28:41;;;;;;;;;;;;;;;;;;5109882;28;19908;-65
2022/04/02 09:31:07;;;;;;;;;;;;;;;;;;5111180;28;19912;-63
2022/04/02 09:35:54;;;;;;;;;;;;;;;;;;5111818;27;19923;-65
2022/04/02 09:38:20;;;;;;;;;;;;;;;;;;5111714;28;20346;-65
2022/04/02 09:40:48;;;;;;;;;;;;;;;;;;5111238;28;19995;-64
2022/04/02 09:45:32;;;;;;;;;;;;;;;;;;5071869;28;20379;-62
2022/04/02 09:47:58;;;;;;;;;;;;;;;;;;5071087;28;19913;-64
2022/04/02 09:50:24;;;;;;;;;;;;;;;;;;5071062;28;19913;-66
2022/04/02 09:52:50;;;;;;;;;;;;;;;;;;5069708;28;20032;-64
2022/04/02 09:55:16;;;;;;;;;;;;;;;;;;5070576;28;19909;-62
2022/04/02 09:57:42;;;;;;;;;;;;;;;;;;5071522;28;19912;-65
2022/04/02 10:00:08;;;;;;;;;;;;;;;;;;5070974;28;20015;-63
2022/04/02 10:04:25;;;;;;;;;;;;;;;;;;5091802;27;20306;-66
2022/04/02 10:07:55;;;;;;;;;;;;;;;;;;5112030;27;19915;-63
2022/04/02 10:10:21;;;;;;;;;;;;;;;;;;5111325;28;19998;-62
2022/04/02 10:15:52;;;;;;;;;;;;;;;;;;5111893;27;19923;-63
2022/04/02 10:20:23;;;;;;;;;;;;;;;;;;5091527;27;19916;-63
2022/04/02 10:22:49;;;;;;;;;;;;;;;;;;5090877;28;20292;-64
2022/04/02 10:34:02;;;;;;;;;;;;;;;;;;5112451;27;19912;-67
2022/04/02 10:36:28;;;;;;;;;;;;;;;;;;5111384;28;20323;-67
2022/04/02 10:38:54;;;;;;;;;;;;;;;;;;5111947;28;19954;-68
2022/04/02 10:41:20;;;;;;;;;;;;;;;;;;5111645;28;20008;-67
2022/04/02 10:43:46;;;;;;;;;;;;;;;;;;5111459;28;19954;-66
2022/04/02 10:46:12;;;;;;;;;;;;;;;;;;5111586;28;19938;-66
2022/04/02 10:52:37;;;;;;;;;;;;;;;;;;5111413;27;20768;-64
2022/04/02 10:56:52;;;;;;;;;;;;;;;;;;5111494;27;19916;-65
2022/04/02 11:01:55;;;;;;;;;;;;;;;;;;5091818;27;19916;-65
2022/04/02 11:04:21;;;;;;;;;;;;;;;;;;5089787;28;20400;-64
2022/04/02 11:06:47;;;;;;;;;;;;;;;;;;5091274;28;19915;-64
2022/04/02 11:10:55;;;;;;;504.30;231.40;;;;;;;;;;5111680;27;20404;-64
2022/04/02 11:13:42;;;;;;;;;;;;;;;;;;5111630;27;19912;-65
2022/04/02 11:17:36;;;;;;;494.02;248.70;;;;;;;;;;5111401;27;20931;-63
2022/04/02 11:20:02;;;;;;;;;;;;;;;;;;5111214;28;20052;-63
2022/04/02 11:24:48;;;;;;;;;;;;;;;;;;5092094;27;19913;-65
2022/04/02 11:31:51;;;;;;;;;;;;;;;;;;5091787;28;19916;-65
2022/04/02 11:43:51;;;;;;;;;;;;;;;;;;5112207;27;19916;-65
2022/04/02 11:47:08;;;;;;;;;;;;;;;;;;5111702;27;19923;-65
2022/04/02 11:51:48;;;;;;;;;;;;;;;;;;5112066;27;19916;-65
2022/04/02 11:54:14;;;;;;;;;;;;;;;;;;5111378;28;20003;-66
2022/04/02 11:58:20;;;;;;;;;;;;;;;;;;5091925;28;19913;-64
2022/04/02 12:00:46;;;;;;;;;;;;;;;;;;5090932;28;19995;-64
2022/04/02 12:03:12;;;;;;;;;;;;;;;;;;5091206;28;20086;-64
2022/04/02 12:05:38;;;;;;;;;;;;;;;;;;5091410;28;19909;-64
2022/04/02 12:08:03;;;;;;;;;;;;;;;;;;5089393;28;20279;-64
2022/04/02 12:10:32;;;;;;;;;;;;;;;;;;5091140;28;19912;-64
2022/04/02 12:12:58;;;;;;;;;;;;;;;;;;5091148;28;19912;-64
2022/04/02 12:15:24;;;;;;;;;;;;;;;;;;5090816;28;20079;-64
2022/04/02 12:17:50;;;;;;;;;;;;;;;;;;5090978;28;19958;-64
2022/04/02 12:20:16;;;;;;;;;;;;;;;;;;5091009;28;19908;-65
2022/04/02 12:22:44;;;;;;;;;;;;;;;;;;5090538;28;19915;-64
2022/04/02 12:27:57;;;;;;;;;;;;;;;;;;5112525;27;20360;-65
2022/04/02 12:32:28;;;;;;;;;;;;;;;;;;5111981;27;19916;-65
2022/04/02 12:34:54;;;;;;;;;;;;;;;;;;5110400;28;19912;-65
2022/04/02 12:37:20;;;;;;;;;;;;;;;;;;5111312;28;19908;-65
2022/04/02 12:39:47;;;;;;;;;;;;;;;;;;5111730;28;20407;-64
2022/04/02 12:42:13;;;;;;;;;;;;;;;;;;5111626;28;19953;-64
2022/04/02 12:44:39;;;;;;;;;;;;;;;;;;5109848;28;19912;-64
2022/04/02 12:47:05;;;;;;;;;;;;;;;;;;5110138;28;19909;-64
2022/04/02 12:49:31;;;;;;;;;;;;;;;;;;5111299;28;20356;-66
2022/04/02 12:54:52;;;;;;;;;;;;;;;;;;5112610;27;19922;-66
2022/04/02 12:57:18;;;;;;;;;;;;;;;;;;5111368;28;19916;-63
2022/04/02 13:01:35;;;;;;;;;;;;;;;;;;5112254;27;19922;-63
2022/04/02 13:05:21;;;;;;;;;;;;;;;;;;5091246;27;19923;-65
2022/04/02 13:07:47;;;;;;;;;;;;;;;;;;5091781;28;20002;-64
2022/04/02 13:11:01;;;;;;;;;;;;;;;;;;5111595;27;19916;-63
2022/04/02 13:13:27;;;;;;;;;;;;;;;;;;5111744;28;20003;-64
2022/04/02 13:15:53;;;;;;;;;;;;;;;;;;5111712;28;20023;-64
2022/04/02 13:26:19;;;;;;;;;;;;;;;;;;5091347;27;19912;-64
2022/04/02 13:28:45;;;;;;;;;;;;;;;;;;5091271;28;19938;-64
2022/04/02 13:31:11;;;;;;;;;;;;;;;;;;5091304;28;19947;-64
2022/04/02 13:34:07;;;;;;;;;;;;;;;;;;5131933;27;20011;-63
2022/04/02 13:40:12;;;;;;;;;;;;;;;;;;5069398;28;19952;-71
2022/04/02 13:42:38;;;;;;;;;;;;;;;;;;5053207;28;19979;-70
2022/04/02 13:45:17;;;;;;;;;;;;;;;;;;5111769;27;19915;-71
2022/04/02 13:47:43;;;;;;;;;;;;;;;;;;5111312;28;20454;-71
2022/04/02 13:50:10;;;;;;;;;;;;;;;;;;5110324;28;20265;-71
2022/04/02 13:52:36;;;;;;;;;;;;;;;;;;5111959;28;19908;-71
2022/04/02 13:55:48;;;;;;;;;;;;;;;;;;5091837;27;19913;-70
2022/04/02 13:58:14;;;;;;;;;;;;;;;;;;5091324;28;20360;-71
2022/04/02 14:01:25;;;;;;;;;;;;;;;;;;5111375;27;19922;-71
2022/04/02 14:03:51;;;;;;;;;;;;;;;;;;5110821;28;20003;-70
2022/04/02 14:06:17;;;;;;;;;;;;;;;;;;5110721;28;19948;-71
2022/04/02 14:11:03;;;;;;;;;;;;;;;;;;5112290;27;20295;-71
2022/04/02 14:13:29;;;;;;;;;;;;;;;;;;5111674;28;19965;-70
2022/04/02 14:15:55;;;;;;;;;;;;;;;;;;5111215;28;20329;-70
2022/04/02 14:18:22;;;;;;;;;;;;;;;;;;5111540;28;19908;-70
2022/04/02 14:20:48;;;;;;;;;;;;;;;;;;5111550;28;19908;-70
2022/04/02 14:23:14;;;;;;;;;;;;;;;;;;5111353;28;19922;-71
2022/04/02 14:25:40;;;;;;;;;;;;;;;;;;5110263;28;19954;-70
2022/04/02 14:28:06;;;;;;;;;;;;;;;;;;5112045;28;19991;-70
2022/04/02 14:30:32;;;;;;;;;;;;;;;;;;5109564;28;19955;-70
2022/04/02 14:32:58;;;;;;;;;;;;;;;;;;5111375;28;19915;-70
2022/04/02 14:35:24;;;;;;;;;;;;;;;;;;5109559;28;19908;-71
2022/04/02 14:37:50;;;;;;;;;;;;;;;;;;5111325;28;19954;-70
2022/04/02 14:40:16;;;;;;;;;;;;;;;;;;5111204;28;19908;-71
2022/04/02 14:44:17;;;;;;;;;;;;;;;;;;5111391;27;19922;-71
2022/04/02 14:46:43;;;;;;;;;;;;;;;;;;5111710;28;19912;-70
2022/04/02 14:49:09;;;;;;;;;;;;;;;;;;5111897;28;19919;-71
2022/04/02 14:51:35;;;;;;;;;;;;;;;;;;5111243;28;19999;-70
2022/04/02 14:54:01;;;;;;;;;;;;;;;;;;5111511;28;19995;-70
2022/04/02 14:57:59;;;;;;;;;;;;;;;;;;5091116;27;19912;-70
2022/04/02 15:00:25;;;;;;;;;;;;;;;;;;5091337;28;19948;-71
2022/04/02 15:02:51;;;;;;;;;;;;;;;;;;5091225;28;19931;-71
2022/04/02 15:05:18;;;;;;;;;;;;;;;;;;5090905;28;19909;-72
2022/04/02 15:07:44;;;;;;;;;;;;;;;;;;5089911;28;20332;-71
2022/04/02 15:10:10;;;;;;;;;;;;;;;;;;5090213;28;19939;-71
2022/04/02 15:12:36;;;;;;;;;;;;;;;;;;5090794;28;19958;-70
2022/04/02 15:15:55;;;;;;;;;;;;;;;;;;5112534;27;19916;-70
2022/04/02 15:18:22;;;;;;;;;;;;;;;;;;5109962;28;20003;-71
2022/04/02 15:20:48;;;;;;;;;;;;;;;;;;5110459;28;19940;-71
2022/04/02 15:23:16;;;;;;;;;;;;;;;;;;5111788;28;19908;-70
2022/04/02 15:25:43;;;;;;;;;;;;;;;;;;5111097;28;19912;-70
2022/04/02 15:28:09;;;;;;;;;;;;;;;;;;5111451;28;19946;-70
2022/04/02 15:31:10;;;;;;;;;;;;;;;;;;5091691;27;20298;-70
2022/04/02 15:34:37;;;;;;;;;;;;;;;;;;5112222;27;20003;-70
2022/04/02 15:37:03;;;;;;;;;;;;;;;;;;5093499;28;19962;-69
2022/04/02 15:43:19;;;;;;;;;;;;;;;;;;5112618;27;19922;-69
2022/04/02 15:47:46;;;;;;;;;;;;;;;;;;5111443;27;19922;-70
2022/04/02 15:50:12;;;;;;;;;;;;;;;;;;5111547;28;19957;-69
2022/04/02 15:52:38;;;;;;;;;;;;;;;;;;5111551;28;19953;-70
2022/04/02 15:55:04;;;;;;;;;;;;;;;;;;5109972;28;20360;-70
2022/04/02 15:57:30;;;;;;;;;;;;;;;;;;5111633;28;19915;-70
2022/04/02 15:59:56;;;;;;;;;;;;;;;;;;5111267;28;19977;-70
2022/04/02 16:04:11;;;;;;;;;;;;;;;;;;5112486;27;19916;-71
2022/04/02 16:08:30;;;;;;;;;;;;;;;;;;5111553;27;19916;-69
2022/04/02 16:10:56;;;;;;;;;;;;;;;;;;5111789;28;20014;-69
2022/04/02 16:13:22;;;;;;;;;;;;;;;;;;5110469;28;20328;-70
2022/04/02 16:15:48;;;;;;;;;;;;;;;;;;5109883;28;20002;-70
2022/04/02 16:18:14;;;;;;;;;;;;;;;;;;5110250;28;19944;-70
2022/04/02 16:20:40;;;;;;;;;;;;;;;;;;5111663;28;20286;-70
2022/04/02 16:23:06;;;;;;;;;;;;;;;;;;5109797;28;20010;-70
2022/04/02 16:25:32;;;;;;;;;;;;;;;;;;5110061;28;19908;-70
2022/04/02 16:27:58;;;;;;;;;;;;;;;;;;5111842;28;19916;-71
2022/04/02 16:32:45;;;;;;;;;;;;;;;;;;5112675;27;20410;-69
2022/04/02 16:36:44;;;;;;;;;;;;;;;;;;5070738;28;19916;-71
2022/04/02 16:42:05;;;;;;;;;;;;;;;;;;5112072;27;19922;-69
2022/04/02 16:44:31;;;;;;;;;;;;;;;;;;5110487;28;19911;-71
2022/04/02 16:46:57;;;;;;;;;;;;;;;;;;5111542;28;19912;-70
2022/04/02 16:50:30;;;;;;;;;;;;;;;;;;5173486;27;20450;-71
2022/04/02 16:52:56;;;;;;;;;;;;;;;;;;5173761;27;19946;-70
2022/04/02 16:55:22;;;;;;;;;;;;;;;;;;5155087;27;19914;-70
2022/04/02 16:57:48;;;;;;;;;;;;;;;;;;5173384;27;19911;-71
2022/04/02 17:00:16;;;;;;;;;;;;;;;;;;5173656;27;19913;-71
2022/04/02 17:02:42;;;;;;;;;;;;;;;;;;5154854;27;19960;-71
2022/04/02 17:05:08;;;;;;;;;;;;;;;;;;5173028;27;19946;-71
2022/04/02 17:08:37;;;;;;;;;;;;;;;;;;5091488;27;20364;-70
2022/04/02 17:11:04;;;;;;;;;;;;;;;;;;5091084;28;19991;-69
2022/04/02 17:13:30;;;;;;;;;;;;;;;;;;5091391;28;19938;-70
2022/04/02 17:15:56;;;;;;;;;;;;;;;;;;5091324;28;19908;-69
2022/04/02 17:18:22;;;;;;;;;;;;;;;;;;5089490;28;19939;-70
2022/04/02 17:20:47;;;;;;;;;;;;;;;;;;5091157;28;19908;-72
2022/04/02 17:23:13;;;;;;;;;;;;;;;;;;5089829;28;19995;-69
2022/04/02 17:25:39;;;;;;;;;;;;;;;;;;5089444;28;19916;-69
2022/04/02 17:28:05;;;;;;;;;;;;;;;;;;5091007;28;19916;-70
2022/04/02 17:30:34;;;;;;;;;;;;;;;;;;5091121;28;19915;-70
2022/04/02 17:33:00;;;;;;;;;;;;;;;;;;5090600;28;19909;-70
2022/04/02 17:35:29;;;;;;;;;;;;;;;;;;5090933;28;20132;-70
2022/04/02 17:37:55;;;;;;;;;;;;;;;;;;5089589;28;19908;-71
2022/04/02 17:40:22;;;;;;;;;;;;;;;;;;5090386;28;19936;-70
2022/04/02 17:42:48;;;;;;;;;;;;;;;;;;5090757;28;19909;-70
2022/04/02 17:45:14;;;;;;;;;;;;;;;;;;5089300;28;19916;-70
2022/04/02 17:49:23;;;;;;;;;;;;;;;;;;5112570;27;19916;-72
2022/04/02 17:51:50;;;;;;;;;;;;;;;;;;5111764;28;20003;-72
2022/04/02 17:54:16;;;;;;;;;;;;;;;;;;5110015;28;20288;-69
2022/04/02 17:56:42;;;;;;;;;;;;;;;;;;5111749;28;19919;-70
2022/04/02 17:59:08;;;;;;;;;;;;;;;;;;5111485;28;19908;-70
2022/04/02 18:01:35;;;;;;;;;;;;;;;;;;5109910;28;19951;-70
2022/04/02 18:04:01;;;;;;;;;;;;;;;;;;5110216;28;19908;-70
2022/04/02 18:08:59;;;;;;;;;;;;;;;;;;5153169;27;20353;-71
2022/04/02 18:11:25;;;;;;;;;;;;;;;;;;5152867;27;19918;-71
2022/04/02 18:13:51;;;;;;;;;;;;;;;;;;5152297;27;20343;-71
2022/04/02 18:16:20;;;;;;;;;;;;;;;;;;5152838;27;19981;-70
2022/04/02 18:18:46;;;;;;;;;;;;;;;;;;5152782;27;19907;-71
2022/04/02 18:21:13;;;;;;;;;;;;;;;;;;5133730;27;19915;-70
2022/04/02 18:23:39;;;;;;;;;;;;;;;;;;5134076;27;20328;-71
2022/04/02 18:26:05;;;;;;;;;;;;;;;;;;5153031;27;19930;-70
2022/04/02 18:28:32;;;;;;;;;;;;;;;;;;5152084;27;20255;-70
2022/04/02 18:30:58;;;;;;;;;;;;;;;;;;5153184;27;19908;-70
2022/04/02 18:33:24;;;;;;;;;;;;;;;;;;5133821;27;19907;-70
2022/04/02 18:35:49;;;;;;;;;;;;;;;;;;5133594;27;20363;-70
2022/04/02 18:38:15;;;;;;;;;;;;;;;;;;5152547;27;19919;-70
2022/04/02 18:40:41;;;;;;;;;;;;;;;;;;5133796;27;19911;-70
2022/04/02 18:43:08;;;;;;;;;;;;;;;;;;5133349;27;20006;-70
2022/04/02 18:45:34;;;;;;;;;;;;;;;;;;5152175;27;19907;-70